createdAt,value
2018-05-07T00:01:08.682Z,8.63
2018-05-07T00:03:37.141Z,9.33
2018-05-07T00:06:05.748Z,7.93
2018-05-07T00:08:34.164Z,8.73
2018-05-07T00:11:02.650Z,7.47
2018-05-07T00:13:31.160Z,7.40
2018-05-07T00:15:59.673Z,9.47
2018-05-07T00:18:28.152Z,7.07
2018-05-07T00:20:56.669Z,8.77
2018-05-07T00:23:25.126Z,7.10
2018-05-07T00:25:53.640Z,7.57
2018-05-07T00:28:22.127Z,6.03
2018-05-07T00:30:50.621Z,5.57
2018-05-07T00:33:19.206Z,6.13
2018-05-07T00:35:47.645Z,5.17
2018-05-07T00:38:16.114Z,5.90
2018-05-07T00:40:44.621Z,7.67
2018-05-07T00:43:13.153Z,5.63
2018-05-07T00:45:41.617Z,5.00
2018-05-07T00:48:10.057Z,5.07
2018-05-07T00:50:38.538Z,6.77
2018-05-07T00:53:07.043Z,7.03
2018-05-07T00:55:35.552Z,5.30
2018-05-07T00:58:04.059Z,5.17
2018-05-07T01:00:32.569Z,4.90
2018-05-07T01:03:01.089Z,4.83
2018-05-07T01:05:29.610Z,5.20
2018-05-07T01:07:58.088Z,5.90
2018-05-07T01:10:26.598Z,7.57
2018-05-07T01:12:55.068Z,6.83
2018-05-07T01:15:23.556Z,7.17
2018-05-07T01:17:52.029Z,6.30
2018-05-07T01:20:20.585Z,7.33
2018-05-07T01:22:49.029Z,6.10
2018-05-07T01:25:17.721Z,6.20
2018-05-07T01:27:46.237Z,8.50
2018-05-07T01:30:14.764Z,8.63
2018-05-07T01:32:43.248Z,6.67
2018-05-07T01:35:11.755Z,7.43
2018-05-07T01:37:40.197Z,6.53
2018-05-07T01:40:08.728Z,5.63
2018-05-07T01:42:37.213Z,5.93
2018-05-07T01:45:05.734Z,8.23
2018-05-07T01:47:34.224Z,6.80
2018-05-07T01:50:02.732Z,8.67
2018-05-07T01:52:31.192Z,6.87
2018-05-07T01:54:59.688Z,5.70
2018-05-07T01:57:28.145Z,5.20
2018-05-07T01:59:56.637Z,6.00
2018-05-07T02:02:25.133Z,8.57
2018-05-07T02:04:53.584Z,5.67
2018-05-07T02:07:22.076Z,6.03
2018-05-07T02:09:50.568Z,6.37
2018-05-07T02:12:19.029Z,5.93
2018-05-07T02:14:47.570Z,5.97
2018-05-07T02:17:16.016Z,6.23
2018-05-07T02:19:44.524Z,5.73
2018-05-07T02:22:13.016Z,6.43
2018-05-07T02:24:41.460Z,6.50
2018-05-07T02:27:09.949Z,6.00
2018-05-07T02:29:38.489Z,6.40
2018-05-07T02:32:07.012Z,7.87
2018-05-07T02:34:35.461Z,6.63
2018-05-07T02:37:03.941Z,7.10
2018-05-07T02:39:32.438Z,8.43
2018-05-07T02:42:00.928Z,9.37
2018-05-07T02:44:29.434Z,9.20
2018-05-07T02:46:57.935Z,7.97
2018-05-07T02:49:26.403Z,8.30
2018-05-07T02:51:54.936Z,8.37
2018-05-07T02:54:23.404Z,11.07
2018-05-07T02:56:51.912Z,14.20
2018-05-07T02:59:20.412Z,12.93
2018-05-07T03:01:48.856Z,7.43
2018-05-07T03:04:17.320Z,10.57
2018-05-07T03:06:45.829Z,8.10
2018-05-07T03:09:14.299Z,7.23
2018-05-07T03:11:42.797Z,7.40
2018-05-07T03:14:11.265Z,7.70
2018-05-07T03:16:39.768Z,6.67
2018-05-07T03:19:08.275Z,9.63
2018-05-07T03:21:36.746Z,9.10
2018-05-07T03:24:05.259Z,6.73
2018-05-07T03:26:33.760Z,8.03
2018-05-07T03:29:02.261Z,7.63
2018-05-07T03:31:30.717Z,6.93
2018-05-07T03:33:59.204Z,6.93
2018-05-07T03:36:27.684Z,7.23
2018-05-07T03:38:56.132Z,7.80
2018-05-07T03:41:24.624Z,7.03
2018-05-07T03:43:53.980Z,6.23
2018-05-07T03:46:22.512Z,7.27
2018-05-07T03:48:51.016Z,6.80
2018-05-07T03:51:19.505Z,6.93
2018-05-07T03:53:47.990Z,6.70
2018-05-07T03:56:16.454Z,6.90
2018-05-07T03:58:44.951Z,8.93
2018-05-07T04:01:13.412Z,6.83
2018-05-07T04:03:42.061Z,6.93
2018-05-07T04:06:10.528Z,10.27
2018-05-07T04:08:38.980Z,6.70
2018-05-07T04:11:07.473Z,9.27
2018-05-07T04:13:35.945Z,7.17
2018-05-07T04:16:04.411Z,6.97
2018-05-07T04:18:44.677Z,7.00
2018-05-07T04:21:14.060Z,6.37
2018-05-07T04:23:54.356Z,10.70
2018-05-07T04:26:22.872Z,7.20
2018-05-07T04:28:51.375Z,8.90
2018-05-07T04:31:19.868Z,6.70
2018-05-07T04:33:48.453Z,6.33
2018-05-07T04:36:16.952Z,6.87
2018-05-07T04:38:45.441Z,6.77
2018-05-07T04:41:13.988Z,6.77
2018-05-07T04:43:42.476Z,6.77
2018-05-07T04:46:10.968Z,7.70
2018-05-07T04:48:39.450Z,6.87
2018-05-07T04:51:08.045Z,6.13
2018-05-07T04:53:36.504Z,6.60
2018-05-07T04:56:04.964Z,6.93
2018-05-07T04:58:33.465Z,7.03
2018-05-07T05:01:01.980Z,6.60
2018-05-07T05:03:30.436Z,7.03
2018-05-07T05:05:58.924Z,8.30
2018-05-07T05:08:27.390Z,6.43
2018-05-07T05:10:55.887Z,6.73
2018-05-07T05:13:24.361Z,7.10
2018-05-07T05:15:52.877Z,6.67
2018-05-07T05:18:21.369Z,6.53
2018-05-07T05:20:49.828Z,6.90
2018-05-07T05:23:18.324Z,6.70
2018-05-07T05:25:46.819Z,6.80
2018-05-07T05:28:15.329Z,8.00
2018-05-07T05:30:43.822Z,6.40
2018-05-07T05:33:12.279Z,6.60
2018-05-07T05:35:40.823Z,7.07
2018-05-07T05:38:09.318Z,6.90
2018-05-07T05:40:37.808Z,6.87
2018-05-07T05:43:06.301Z,7.00
2018-05-07T05:45:34.769Z,7.17
2018-05-07T05:48:03.257Z,7.20
2018-05-07T05:50:31.726Z,6.80
2018-05-07T05:53:00.192Z,7.33
2018-05-07T05:55:28.680Z,7.10
2018-05-07T05:57:57.149Z,7.00
2018-05-07T06:00:25.637Z,8.33
2018-05-07T06:02:54.096Z,7.27
2018-05-07T06:05:22.589Z,6.80
2018-05-07T06:07:51.088Z,7.37
2018-05-07T06:10:19.552Z,7.53
2018-05-07T06:12:48.052Z,7.70
2018-05-07T06:15:16.541Z,8.20
2018-05-07T06:17:45.059Z,8.70
2018-05-07T06:20:13.512Z,10.13
2018-05-07T06:22:42.048Z,8.53
2018-05-07T06:25:10.544Z,10.90
2018-05-07T06:27:39.002Z,10.83
2018-05-07T06:30:07.489Z,8.90
2018-05-07T06:32:35.930Z,8.87
2018-05-07T06:35:04.461Z,9.53
2018-05-07T06:37:32.944Z,8.37
2018-05-07T06:40:01.480Z,9.73
2018-05-07T06:42:30.004Z,9.33
2018-05-07T06:44:58.553Z,10.83
2018-05-07T06:47:27.024Z,9.50
2018-05-07T06:49:55.545Z,10.63
2018-05-07T06:52:24.072Z,10.37
2018-05-07T06:54:52.528Z,9.73
2018-05-07T06:57:21.028Z,10.30
2018-05-07T06:59:49.550Z,11.27
2018-05-07T07:02:18.046Z,9.10
2018-05-07T07:04:46.509Z,10.43
2018-05-07T07:07:15.028Z,9.33
2018-05-07T07:09:43.515Z,9.60
2018-05-07T07:12:11.973Z,10.33
2018-05-07T07:14:40.461Z,8.47
2018-05-07T07:17:08.964Z,9.83
2018-05-07T07:19:37.457Z,9.60
2018-05-07T07:22:05.979Z,9.43
2018-05-07T07:24:34.452Z,9.10
2018-05-07T07:27:02.935Z,10.47
2018-05-07T07:29:31.437Z,10.27
2018-05-07T07:31:59.937Z,9.73
2018-05-07T07:34:28.405Z,9.57
2018-05-07T07:36:56.913Z,10.40
2018-05-07T07:39:25.388Z,10.07
2018-05-07T07:41:53.883Z,10.47
2018-05-07T07:44:22.340Z,9.90
2018-05-07T07:46:50.840Z,10.50
2018-05-07T07:49:19.317Z,9.60
2018-05-07T07:51:47.780Z,10.80
2018-05-07T07:54:16.300Z,10.00
2018-05-07T07:56:44.763Z,10.37
2018-05-07T07:59:13.272Z,9.73
2018-05-07T08:01:41.749Z,10.13
2018-05-07T08:04:10.322Z,9.67
2018-05-07T08:06:38.807Z,9.33
2018-05-07T08:09:07.333Z,8.87
2018-05-07T08:11:35.786Z,7.70
2018-05-07T08:14:04.335Z,7.40
2018-05-07T08:16:32.781Z,10.07
2018-05-07T08:19:01.229Z,10.67
2018-05-07T08:21:29.724Z,9.00
2018-05-07T08:23:58.185Z,6.73
2018-05-07T08:26:26.676Z,6.67
2018-05-07T08:28:55.156Z,6.30
2018-05-07T08:31:23.657Z,7.17
2018-05-07T08:33:52.126Z,6.33
2018-05-07T08:36:20.621Z,8.00
2018-05-07T08:38:49.116Z,7.13
2018-05-07T08:41:17.613Z,7.60
2018-05-07T08:43:46.068Z,7.50
2018-05-07T08:46:14.550Z,7.47
2018-05-07T08:48:43.032Z,7.43
2018-05-07T08:51:11.522Z,7.33
2018-05-07T08:53:40.146Z,7.37
2018-05-07T08:56:08.632Z,6.73
2018-05-07T08:58:37.108Z,7.47
2018-05-07T09:01:05.593Z,7.43
2018-05-07T09:03:34.112Z,8.20
2018-05-07T09:06:02.573Z,8.07
2018-05-07T09:08:31.028Z,7.07
2018-05-07T09:10:59.520Z,8.27
2018-05-07T09:13:28.031Z,7.70
2018-05-07T09:15:56.535Z,10.17
2018-05-07T09:18:24.999Z,10.33
2018-05-07T09:20:53.510Z,8.93
2018-05-07T09:23:22.053Z,7.03
2018-05-07T09:25:50.572Z,7.63
2018-05-07T09:28:19.042Z,6.90
2018-05-07T09:30:47.589Z,8.70
2018-05-07T09:33:16.034Z,7.03
2018-05-07T09:35:44.479Z,5.30
2018-05-07T09:38:12.950Z,5.10
2018-05-07T09:40:41.415Z,5.20
2018-05-07T09:43:09.931Z,5.43
2018-05-07T09:45:38.448Z,5.53
2018-05-07T09:48:06.881Z,6.73
2018-05-07T09:50:35.364Z,5.97
2018-05-07T09:53:03.856Z,4.90
2018-05-07T09:55:32.336Z,5.20
2018-05-07T09:58:04.620Z,4.97
2018-05-07T10:00:37.724Z,6.20
2018-05-07T10:03:06.267Z,5.57
2018-05-07T10:05:34.792Z,9.13
2018-05-07T10:08:03.290Z,6.00
2018-05-07T10:10:31.770Z,5.13
2018-05-07T10:13:00.201Z,5.17
2018-05-07T10:15:28.718Z,5.13
2018-05-07T10:17:57.188Z,5.30
2018-05-07T10:20:25.676Z,5.23
2018-05-07T10:22:54.198Z,6.00
2018-05-07T10:25:22.659Z,5.60
2018-05-07T10:27:51.196Z,4.83
2018-05-07T10:30:19.700Z,10.40
2018-05-07T10:32:48.184Z,6.13
2018-05-07T10:35:16.735Z,4.90
2018-05-07T10:37:45.203Z,4.77
2018-05-07T10:40:13.664Z,5.17
2018-05-07T10:42:42.338Z,8.10
2018-05-07T10:45:10.744Z,6.03
2018-05-07T10:47:39.198Z,6.80
2018-05-07T10:50:07.704Z,5.37
2018-05-07T10:52:36.172Z,6.53
2018-05-07T10:55:04.666Z,5.03
2018-05-07T10:57:33.157Z,5.77
2018-05-07T11:00:01.694Z,6.60
2018-05-07T11:02:30.172Z,6.80
2018-05-07T11:04:58.657Z,10.30
2018-05-07T11:07:27.143Z,6.83
2018-05-07T11:09:55.644Z,7.40
2018-05-07T11:12:24.090Z,7.03
2018-05-07T11:14:52.596Z,6.17
2018-05-07T11:17:21.061Z,6.63
2018-05-07T11:19:49.539Z,6.90
2018-05-07T11:22:18.054Z,5.23
2018-05-07T11:24:46.534Z,8.43
2018-05-07T11:27:15.016Z,5.40
2018-05-07T11:29:43.476Z,4.83
2018-05-07T11:32:12.016Z,5.33
2018-05-07T11:34:40.460Z,8.03
2018-05-07T11:37:08.928Z,5.23
2018-05-07T11:39:37.368Z,5.10
2018-05-07T11:42:05.867Z,5.07
2018-05-07T11:44:34.353Z,11.57
2018-05-07T11:47:02.844Z,4.93
2018-05-07T11:49:31.356Z,6.63
2018-05-07T11:51:59.845Z,7.37
2018-05-07T11:54:28.334Z,6.63
2018-05-07T11:56:56.856Z,7.13
2018-05-07T11:59:25.336Z,6.87
2018-05-07T12:01:53.836Z,6.40
2018-05-07T12:04:22.302Z,5.93
2018-05-07T12:06:50.784Z,5.57
2018-05-07T12:09:19.284Z,6.97
2018-05-07T12:11:47.739Z,8.97
2018-05-07T12:14:16.220Z,6.07
2018-05-07T12:16:44.669Z,7.30
2018-05-07T12:19:13.157Z,5.97
2018-05-07T12:21:41.612Z,5.60
2018-05-07T12:24:10.127Z,7.70
2018-05-07T12:26:38.644Z,5.83
2018-05-07T12:29:07.108Z,5.97
2018-05-07T12:31:35.713Z,9.13
2018-05-07T12:34:04.085Z,6.27
2018-05-07T12:36:32.561Z,5.90
2018-05-07T12:39:01.013Z,5.50
2018-05-07T12:41:29.516Z,8.00
2018-05-07T12:43:57.997Z,7.40
2018-05-07T12:46:26.477Z,5.67
2018-05-07T12:48:54.968Z,5.57
2018-05-07T12:51:23.432Z,6.37
2018-05-07T12:53:51.933Z,5.97
2018-05-07T12:56:20.420Z,9.83
2018-05-07T12:58:49.036Z,7.47
2018-05-07T13:01:17.521Z,9.30
2018-05-07T13:03:45.972Z,8.03
2018-05-07T13:06:14.456Z,6.43
2018-05-07T13:08:42.969Z,7.27
2018-05-07T13:11:11.412Z,8.10
2018-05-07T13:13:39.899Z,8.93
2018-05-07T13:16:08.385Z,5.27
2018-05-07T13:18:36.892Z,7.30
2018-05-07T13:21:05.352Z,7.07
2018-05-07T13:23:33.889Z,5.23
2018-05-07T13:26:02.352Z,5.80
2018-05-07T13:28:30.844Z,6.20
2018-05-07T13:30:59.380Z,7.40
2018-05-07T13:33:27.875Z,6.37
2018-05-07T13:35:56.397Z,6.30
2018-05-07T13:38:24.896Z,5.83
2018-05-07T13:40:53.365Z,8.10
2018-05-07T13:43:21.860Z,6.87
2018-05-07T13:45:50.329Z,8.60
2018-05-07T13:48:18.848Z,11.27
2018-05-07T13:50:47.305Z,6.77
2018-05-07T13:53:15.741Z,6.40
2018-05-07T13:55:44.238Z,5.70
2018-05-07T13:58:12.740Z,10.53
2018-05-07T14:00:41.237Z,5.70
2018-05-07T14:03:09.705Z,10.97
2018-05-07T14:05:38.205Z,7.90
2018-05-07T14:08:06.697Z,7.83
2018-05-07T14:10:35.201Z,6.23
2018-05-07T14:13:03.652Z,7.23
2018-05-07T14:15:32.115Z,6.93
2018-05-07T14:18:00.629Z,8.27
2018-05-07T14:20:29.135Z,5.30
2018-05-07T14:22:57.640Z,6.17
2018-05-07T14:25:26.136Z,6.00
2018-05-07T14:27:54.653Z,8.17
2018-05-07T14:30:23.080Z,7.27
2018-05-07T14:32:51.529Z,6.40
2018-05-07T14:35:20.054Z,10.03
2018-05-07T14:37:48.492Z,8.17
2018-05-07T14:40:17.016Z,10.43
2018-05-07T14:42:45.520Z,6.13
2018-05-07T14:45:14.037Z,9.40
2018-05-07T14:47:42.496Z,8.53
2018-05-07T14:50:10.982Z,6.50
2018-05-07T14:52:39.465Z,9.63
2018-05-07T14:55:07.977Z,8.63
2018-05-07T14:57:36.440Z,7.33
2018-05-07T15:00:04.952Z,7.00
2018-05-07T15:02:33.468Z,6.57
2018-05-07T15:05:01.906Z,8.20
2018-05-07T15:07:30.364Z,5.93
2018-05-07T15:09:58.872Z,6.17
2018-05-07T15:12:27.328Z,10.90
2018-05-07T15:14:55.816Z,6.60
2018-05-07T15:17:24.271Z,5.87
2018-05-07T15:19:52.753Z,7.10
2018-05-07T15:22:21.248Z,7.13
2018-05-07T15:24:49.758Z,8.37
2018-05-07T15:27:18.263Z,7.20
2018-05-07T15:29:46.771Z,8.33
2018-05-07T15:32:15.254Z,9.70
2018-05-07T15:34:43.755Z,7.07
2018-05-07T15:37:12.247Z,7.73
2018-05-07T15:39:40.760Z,8.10
2018-05-07T15:42:09.269Z,6.13
2018-05-07T15:44:37.725Z,7.47
2018-05-07T15:47:06.240Z,7.03
2018-05-07T15:49:34.696Z,5.93
2018-05-07T15:52:03.200Z,6.47
2018-05-07T15:54:31.704Z,6.67
2018-05-07T15:57:00.208Z,6.03
2018-05-07T15:59:28.672Z,8.77
2018-05-07T16:01:57.136Z,5.90
2018-05-07T16:04:25.646Z,8.10
2018-05-07T16:06:54.143Z,12.90
2018-05-07T16:09:22.629Z,6.80
2018-05-07T16:11:51.117Z,11.33
2018-05-07T16:14:19.581Z,8.33
2018-05-07T16:16:48.096Z,5.80
2018-05-07T16:19:16.600Z,5.70
2018-05-07T16:21:45.209Z,6.27
2018-05-07T16:24:13.604Z,7.77
2018-05-07T16:26:42.099Z,9.27
2018-05-07T16:29:10.570Z,6.17
2018-05-07T16:31:39.073Z,7.47
2018-05-07T16:34:07.529Z,7.27
2018-05-07T16:36:36.004Z,8.43
2018-05-07T16:39:04.549Z,9.13
2018-05-07T16:41:33.008Z,7.97
2018-05-07T16:44:01.456Z,12.13
2018-05-07T16:46:30.005Z,9.00
2018-05-07T16:48:58.558Z,6.83
2018-05-07T16:51:27.036Z,6.50
2018-05-07T16:53:55.493Z,8.37
2018-05-07T16:56:23.984Z,7.50
2018-05-07T16:58:52.481Z,12.53
2018-05-07T17:01:21.007Z,6.90
2018-05-07T17:03:49.504Z,7.03
2018-05-07T17:06:17.977Z,9.07
2018-05-07T17:08:46.495Z,7.40
2018-05-07T17:11:14.985Z,9.23
2018-05-07T17:13:43.491Z,9.27
2018-05-07T17:16:11.953Z,7.20
2018-05-07T17:18:40.440Z,7.70
2018-05-07T17:21:08.939Z,8.70
2018-05-07T17:23:37.444Z,8.73
2018-05-07T17:26:05.898Z,8.03
2018-05-07T17:28:34.376Z,9.67
2018-05-07T17:31:02.886Z,17.87
2018-05-07T17:33:31.386Z,15.50
2018-05-07T17:35:59.894Z,8.93
2018-05-07T17:38:28.357Z,11.03
2018-05-07T17:40:56.871Z,8.37
2018-05-07T17:43:25.369Z,8.33
2018-05-07T17:46:05.500Z,12.07
2018-05-07T17:48:45.626Z,14.20
2018-05-07T17:51:14.120Z,8.87
2018-05-07T17:53:42.608Z,11.47
2018-05-07T17:56:11.225Z,9.40
2018-05-07T17:58:39.633Z,13.20
2018-05-07T18:01:08.085Z,11.50
2018-05-07T18:03:36.599Z,12.83
2018-05-07T18:06:05.095Z,10.53
2018-05-07T18:08:33.538Z,9.83
2018-05-07T18:11:02.044Z,11.90
2018-05-07T18:13:30.505Z,12.03
2018-05-07T18:15:58.980Z,9.07
2018-05-07T18:18:27.458Z,13.90
2018-05-07T18:20:55.946Z,10.97
2018-05-07T18:23:24.432Z,9.20
2018-05-07T18:25:52.932Z,9.77
2018-05-07T18:28:21.384Z,11.57
2018-05-07T18:30:49.888Z,9.33
2018-05-07T18:33:18.350Z,16.00
2018-05-07T18:35:46.845Z,8.93
2018-05-07T18:38:15.328Z,8.73
2018-05-07T18:40:43.772Z,9.10
2018-05-07T18:43:12.245Z,9.37
2018-05-07T18:45:40.733Z,11.03
2018-05-07T18:48:09.231Z,9.23
2018-05-07T18:50:37.696Z,13.47
2018-05-07T18:53:06.148Z,8.90
2018-05-07T18:55:34.680Z,11.53
2018-05-07T18:58:03.182Z,9.37
2018-05-07T19:00:31.693Z,12.53
2018-05-07T19:03:00.184Z,14.17
2018-05-07T19:05:28.660Z,15.83
2018-05-07T19:07:57.160Z,10.40
2018-05-07T19:10:25.613Z,13.10
2018-05-07T19:12:54.117Z,12.97
2018-05-07T19:15:22.592Z,10.07
2018-05-07T19:17:51.113Z,10.33
2018-05-07T19:20:19.614Z,9.87
2018-05-07T19:22:48.062Z,9.67
2018-05-07T19:25:16.585Z,15.20
2018-05-07T19:27:45.053Z,14.30
2018-05-07T19:30:13.556Z,11.60
2018-05-07T19:32:42.037Z,13.53
2018-05-07T19:35:10.518Z,10.47
2018-05-07T19:37:38.986Z,11.10
2018-05-07T19:40:07.508Z,13.40
2018-05-07T19:42:35.982Z,13.07
2018-05-07T19:45:04.501Z,12.33
2018-05-07T19:47:32.971Z,11.10
2018-05-07T19:50:01.442Z,10.60
2018-05-07T19:52:29.980Z,11.27
2018-05-07T19:54:58.558Z,12.57
2018-05-07T19:57:26.993Z,9.77
2018-05-07T19:59:55.489Z,10.40
2018-05-07T20:02:23.997Z,11.07
2018-05-07T20:04:52.469Z,12.13
2018-05-07T20:07:20.972Z,13.00
2018-05-07T20:09:49.445Z,13.17
2018-05-07T20:12:18.020Z,16.83
2018-05-07T20:14:46.524Z,14.63
2018-05-07T20:17:15.002Z,15.03
2018-05-07T20:19:43.512Z,12.57
2018-05-07T20:22:11.988Z,13.10
2018-05-07T20:24:40.494Z,10.00
2018-05-07T20:27:08.952Z,15.43
2018-05-07T20:29:37.436Z,9.93
2018-05-07T20:32:05.896Z,8.80
2018-05-07T20:34:34.398Z,11.57
2018-05-07T20:37:02.845Z,9.13
2018-05-07T20:39:31.328Z,10.80
2018-05-07T20:41:59.769Z,11.63
2018-05-07T20:44:28.268Z,9.67
2018-05-07T20:46:56.756Z,9.67
2018-05-07T20:49:25.207Z,14.80
2018-05-07T20:51:53.695Z,12.13
2018-05-07T20:54:22.190Z,14.07
2018-05-07T20:56:50.657Z,9.10
2018-05-07T20:59:19.171Z,8.73
2018-05-07T21:01:47.705Z,8.93
2018-05-07T21:04:16.192Z,8.67
2018-05-07T21:06:44.639Z,8.13
2018-05-07T21:09:13.148Z,9.30
2018-05-07T21:11:41.646Z,9.43
2018-05-07T21:14:10.113Z,7.23
2018-05-07T21:16:38.615Z,7.97
2018-05-07T21:19:07.097Z,7.37
2018-05-07T21:21:35.610Z,9.00
2018-05-07T21:24:04.080Z,9.00
2018-05-07T21:26:32.614Z,9.07
2018-05-07T21:29:01.069Z,9.10
2018-05-07T21:31:29.599Z,8.00
2018-05-07T21:33:58.064Z,8.27
2018-05-07T21:36:26.513Z,8.43
2018-05-07T21:38:54.996Z,13.60
2018-05-07T21:41:23.461Z,9.10
2018-05-07T21:43:51.957Z,10.13
2018-05-07T21:46:20.465Z,7.30
2018-05-07T21:48:48.952Z,7.63
2018-05-07T21:51:17.448Z,7.40
2018-05-07T21:53:45.908Z,8.33
2018-05-07T21:56:14.401Z,8.90
2018-05-07T21:58:42.870Z,8.27
2018-05-07T22:01:11.320Z,9.10
2018-05-07T22:03:39.815Z,10.30
2018-05-07T22:06:08.320Z,8.30
2018-05-07T22:08:36.786Z,9.27
2018-05-07T22:11:05.289Z,9.47
2018-05-07T22:13:33.736Z,9.87
2018-05-07T22:16:02.199Z,7.57
2018-05-07T22:18:30.685Z,7.13
2018-05-07T22:20:59.123Z,7.27
2018-05-07T22:23:27.611Z,7.07
2018-05-07T22:25:56.081Z,7.73
2018-05-07T22:28:24.598Z,7.33
2018-05-07T22:30:53.060Z,9.00
2018-05-07T22:33:21.582Z,6.80
2018-05-07T22:35:50.088Z,7.90
2018-05-07T22:38:18.567Z,7.30
2018-05-07T22:40:47.050Z,7.43
2018-05-07T22:43:15.496Z,7.73
2018-05-07T22:45:44.017Z,9.50
2018-05-07T22:48:12.538Z,9.77
2018-05-07T22:50:41.025Z,8.07
2018-05-07T22:53:09.521Z,8.53
2018-05-07T22:55:38.021Z,8.83
2018-05-07T22:58:06.480Z,7.70
2018-05-07T23:00:34.984Z,12.70
2018-05-07T23:03:03.594Z,7.33
2018-05-07T23:05:32.151Z,8.37
2018-05-07T23:08:00.608Z,11.50
2018-05-07T23:10:29.121Z,9.20
2018-05-07T23:12:57.620Z,8.73
2018-05-07T23:15:26.116Z,7.97
2018-05-07T23:17:54.604Z,7.97
2018-05-07T23:20:23.096Z,8.13
2018-05-07T23:22:51.593Z,8.20
2018-05-07T23:25:20.071Z,9.70
2018-05-07T23:27:48.581Z,8.17
2018-05-07T23:30:17.032Z,9.17
2018-05-07T23:32:45.525Z,7.83
2018-05-07T23:35:13.988Z,9.13
2018-05-07T23:37:42.505Z,7.70
2018-05-07T23:40:11.017Z,9.43
2018-05-07T23:42:39.468Z,8.73
2018-05-07T23:45:07.965Z,8.80
2018-05-07T23:47:36.448Z,8.57
2018-05-07T23:50:04.933Z,8.63
2018-05-07T23:52:33.493Z,8.70
2018-05-07T23:55:01.970Z,8.63
2018-05-07T23:57:30.474Z,8.63
2018-05-07T23:59:58.975Z,8.60
